Time;durP1;ratioP1;P1;durP2;ratioP2;P2;SDS_P1;SDS_P2;PMS_P1;PMS_P2;Temp;Humidity;BMP_temperature;BMP_pressure;BME280_temperature;BME280_humidity;BME280_pressure;Samples;Min_cycle;Max_cycle;Signal;HPM_P1;HPM_P2
2023/10/20 00:00:26;;;;;;;23.63;21.27;;;;;;;6.83;100.00;93557.59;7398040;19;20385;-88
2023/10/20 00:02:53;;;;;;;23.30;20.90;;;;;;;6.89;100.00;93550.84;7399528;19;20907;-89
2023/10/20 00:05:20;;;;;;;25.50;22.80;;;;;;;6.16;100.00;93442.63;7402264;19;20470;-89
2023/10/20 00:07:47;;;;;;;24.40;21.90;;;;;;;6.69;100.00;93508.41;7403308;19;20368;-89
2023/10/20 00:10:14;;;;;;;24.23;21.30;;;;;;;6.88;100.00;93538.84;7398847;19;20404;-89
2023/10/20 00:12:41;;;;;;;23.83;20.60;;;;;;;6.53;100.00;93492.22;7402604;19;20369;-89
2023/10/20 00:15:13;;;;;;;21.90;19.23;;;;;;;6.67;100.00;93504.63;7399901;19;20728;-89
2023/10/20 00:17:42;;;;;;;22.00;19.80;;;;;;;6.28;100.00;93438.91;7398785;19;20403;-89
2023/10/20 00:20:10;;;;;;;22.07;19.77;;;;;;;6.24;100.00;93425.78;7403498;19;20404;-89
2023/10/20 00:22:37;;;;;;;21.87;18.33;;;;;;;6.39;100.00;93455.44;7398927;19;20396;-89
2023/10/20 00:25:04;;;;;;;24.03;19.60;;;;;;;6.17;100.00;93412.66;7401854;19;20913;-89
2023/10/20 00:27:31;;;;;;;21.73;18.97;;;;;;;5.83;100.00;93372.78;7400128;19;20389;-89
2023/10/20 00:29:58;;;;;;;21.57;19.07;;;;;;;6.40;100.00;93468.19;7395543;19;20435;-89
2023/10/20 00:32:25;;;;;;;23.43;21.13;;;;;;;5.68;100.00;93373.81;7402617;19;20401;-89
2023/10/20 00:34:52;;;;;;;20.57;18.47;;;;;;;5.52;100.00;93340.06;7399093;19;20392;-89
2023/10/20 00:37:20;;;;;;;22.03;19.70;;;;;;;6.00;100.00;93402.81;7397169;19;20369;-89
2023/10/20 00:39:47;;;;;;;22.37;20.07;;;;;;;6.27;100.00;93438.16;7393366;19;20449;-89
2023/10/20 00:42:14;;;;;;;26.87;21.27;;;;;;;6.19;100.00;93424.28;7397635;19;20380;-89
2023/10/20 00:44:41;;;;;;;20.40;18.30;;;;;;;6.13;100.00;93411.88;7400214;19;20396;-89
2023/10/20 00:47:09;;;;;;;21.03;18.83;;;;;;;6.38;100.00;93472.28;7396843;19;20420;-89
2023/10/20 00:49:37;;;;;;;23.30;18.80;;;;;;;6.34;100.00;93459.16;7396995;19;20420;-89
2023/10/20 00:52:06;;;;;;;20.70;18.60;;;;;;;5.88;100.00;93386.28;7396982;19;20412;-89
2023/10/20 00:54:33;;;;;;;18.43;16.43;;;;;;;5.96;100.00;93383.72;7398982;19;20392;-89
2023/10/20 00:57:01;;;;;;;21.07;18.77;;;;;;;5.46;100.00;93310.09;7399703;19;20385;-89
2023/10/20 00:59:28;;;;;;;20.47;17.93;;;;;;;5.63;100.00;93322.53;7401195;19;20420;-89
2023/10/20 01:01:55;;;;;;;21.17;19.10;;;;;;;6.14;100.00;93400.25;7401798;19;20416;-89
2023/10/20 01:04:22;;;;;;;19.43;17.40;;;;;;;5.34;100.00;93293.59;7395877;19;20416;-89
2023/10/20 01:06:49;;;;;;;20.77;18.57;;;;;;;5.02;100.00;93238.44;7397011;19;20388;-89
2023/10/20 01:09:27;;;;;;;25.50;22.70;;;;;;;6.64;100.00;93437.13;7398252;19;20417;-89
2023/10/20 01:11:55;;;;;;;22.30;19.90;;;;;;;6.28;100.00;93374.09;7397231;19;20649;-89
2023/10/20 01:14:22;;;;;;;24.70;21.97;;;;;;;6.87;100.00;93457.81;7399650;19;20403;-89
2023/10/20 01:16:49;;;;;;;23.43;21.23;;;;;;;6.18;100.00;93357.19;7394105;19;20727;-89
2023/10/20 01:19:16;;;;;;;28.50;21.17;;;;;;;6.35;100.00;93368.09;7396482;19;20432;-89
2023/10/20 01:21:43;;;;;;;22.93;20.10;;;;;;;6.73;100.00;93437.53;7404002;19;20408;-89
2023/10/20 01:24:10;;;;;;;25.13;22.50;;;;;;;5.62;100.00;93292.97;7402030;19;20545;-89
2023/10/20 01:26:38;;;;;;;22.77;20.40;;;;;;;6.21;100.00;93395.78;7402649;19;20417;-88
2023/10/20 01:29:09;;;;;;;23.37;20.97;;;;;;;5.33;100.00;93259.88;7398379;19;20441;-89
2023/10/20 01:31:36;;;;;;;22.57;20.23;;;;;;;6.25;100.00;93403.66;7397172;19;20373;-89
2023/10/20 01:34:03;;;;;;;23.73;21.23;;;;;;;6.11;100.00;93372.91;7401761;19;20383;-89
2023/10/20 01:36:30;;;;;;;23.43;20.97;;;;;;;6.53;100.00;93416.84;7417558;19;20380;-89
2023/10/20 01:38:57;;;;;;;24.73;22.07;;;;;;;6.08;100.00;93354.53;7404707;19;20925;-88
2023/10/20 01:41:26;;;;;;;24.87;22.23;;;;;;;6.38;100.00;93370.72;7403746;19;20379;-89
2023/10/20 01:43:53;;;;;;;25.47;22.67;;;;;;;6.47;100.00;93404.47;7402414;19;20418;-89
2023/10/20 01:46:20;;;;;;;26.13;23.47;;;;;;;6.39;100.00;93406.31;7400605;19;20387;-89
2023/10/20 01:48:47;;;;;;;26.00;23.13;;;;;;;6.19;100.00;93366.56;7401487;19;20415;-89
2023/10/20 01:51:14;;;;;;;21.17;18.87;;;;;;;6.00;100.00;93340.66;7403493;19;20901;-89
2023/10/20 01:53:41;;;;;;;25.87;22.70;;;;;;;6.09;100.00;93356.03;7401909;19;20415;-88
2023/10/20 01:56:10;;;;;;;23.17;19.50;;;;;;;6.12;100.00;93360.53;7404204;19;20373;-89
2023/10/20 01:58:37;;;;;;;25.13;21.13;;;;;;;5.32;100.00;93264.38;7401427;19;20415;-89
2023/10/20 02:01:04;;;;;;;26.03;23.03;;;;;;;6.08;100.00;93357.16;7400422;19;20371;-89
2023/10/20 02:03:31;;;;;;;29.30;23.93;;;;;;;6.15;100.00;93351.94;7403607;19;20389;-89
2023/10/20 02:05:58;;;;;;;25.37;22.63;;;;;;;5.94;100.00;93308.06;7403041;19;20377;-89
2023/10/20 02:08:25;;;;;;;30.13;24.10;;;;;;;5.41;100.00;93219.53;7403899;19;20404;-89
2023/10/20 02:10:52;;;;;;;24.17;21.43;;;;;;;6.63;100.00;93391.00;7401490;19;20549;-89
2023/10/20 02:13:19;;;;;;;23.83;21.37;;;;;;;6.25;100.00;93332.09;7401861;19;20397;-89
2023/10/20 02:15:48;;;;;;;27.60;24.13;;;;;;;6.67;100.00;93383.88;7403522;19;20397;-89
2023/10/20 02:18:15;;;;;;;27.23;23.93;;;;;;;5.05;100.00;93156.53;7402802;19;20749;-89
2023/10/20 02:20:56;;;;;;;25.30;22.60;;;;;;;5.64;100.00;93248.03;7404847;19;20392;-89
2023/10/20 02:23:24;;;;;;;25.13;21.80;;;;;;;5.88;100.00;93293.78;7402570;19;20404;-89
2023/10/20 02:26:01;;;;;;;25.83;21.87;;;;;;;6.11;100.00;93330.94;7400077;19;20398;-89
2023/10/20 02:28:29;;;;;;;25.17;22.43;;;;;;;6.04;100.00;93323.06;7400677;19;21037;-89
2023/10/20 02:30:58;;;;;;;25.63;21.83;;;;;;;6.02;100.00;93308.84;7398259;19;20921;-89
2023/10/20 02:33:26;;;;;;;24.30;21.60;;;;;;;5.90;100.00;93284.47;7401927;19;20705;-89
2023/10/20 02:35:56;;;;;;;26.37;23.33;;;;;;;6.40;100.00;93360.59;7399007;19;20368;-89
2023/10/20 02:38:23;;;;;;;30.03;23.43;;;;;;;6.08;100.00;93315.97;7401478;19;20409;-89
2023/10/20 02:40:52;;;;;;;27.00;23.37;;;;;;;6.10;100.00;93311.09;7400695;19;20396;-88
2023/10/20 02:43:19;;;;;;;24.10;21.43;;;;;;;6.62;100.00;93365.91;7398158;19;20467;-88
2023/10/20 02:45:54;;;;;;;35.73;23.33;;;;;;;6.18;100.00;93306.63;7405504;19;20421;-90
2023/10/20 02:48:23;;;;;;;25.00;22.40;;;;;;;6.17;100.00;93300.63;7430436;19;20436;-90
2023/10/20 02:50:50;;;;;;;26.80;22.53;;;;;;;6.13;100.00;93284.13;7430415;19;20400;-90
2023/10/20 02:53:20;;;;;;;25.70;22.93;;;;;;;5.96;100.00;93247.38;7422048;19;20448;-88
2023/10/20 02:55:47;;;;;;;28.53;24.27;;;;;;;5.84;100.00;93243.22;7399566;19;20376;-88
2023/10/20 02:58:16;;;;;;;31.80;25.47;;;;;;;6.79;100.00;93367.78;7398629;19;20453;-88
2023/10/20 03:00:45;;;;;;;33.70;25.90;;;;;;;6.61;100.00;93338.91;7400693;19;20397;-88
2023/10/20 03:03:13;;;;;;;25.60;22.90;;;;;;;6.82;100.00;93361.78;7397607;19;20396;-89
2023/10/20 03:05:45;;;;;;;31.27;25.77;;;;;;;6.63;100.00;93330.66;7402539;19;20377;-89
2023/10/20 03:08:12;;;;;;;26.63;23.83;;;;;;;6.56;100.00;93313.03;7398774;19;20401;-89
2023/10/20 03:10:39;;;;;;;30.07;26.80;;;;;;;6.49;100.00;93307.78;7395525;19;20389;-89
2023/10/20 03:13:06;;;;;;;30.60;23.83;;;;;;;6.17;100.00;93257.91;7396354;19;20759;-89
2023/10/20 03:15:33;;;;;;;26.83;23.60;;;;;;;6.44;100.00;93293.16;7400630;19;20377;-89
2023/10/20 03:18:00;;;;;;;29.27;24.93;;;;;;;6.12;100.00;93251.16;7398478;19;20392;-89
2023/10/20 03:20:32;;;;;;;27.97;24.97;;;;;;;6.58;100.00;93329.16;7400794;19;20775;-88
2023/10/20 03:23:01;;;;;;;27.07;24.00;;;;;;;6.33;100.00;93284.53;7396070;19;20372;-89
2023/10/20 03:25:31;;;;;;;32.43;26.47;;;;;;;6.08;100.00;93252.28;7399830;19;20376;-89
2023/10/20 03:27:58;;;;;;;28.90;25.50;;;;;;;5.82;100.00;93203.53;7397780;19;20352;-88
2023/10/20 03:30:25;;;;;;;31.33;26.30;;;;;;;6.32;100.00;93263.91;7399235;19;20391;-89
2023/10/20 03:32:53;;;;;;;27.17;24.27;;;;;;;6.29;100.00;93244.44;7398336;19;20762;-88
2023/10/20 03:35:21;;;;;;;27.43;24.10;;;;;;;6.11;100.00;93230.53;7402570;19;20881;-88
2023/10/20 03:37:56;;;;;;;25.87;23.10;;;;;;;6.40;100.00;93271.41;7398174;19;20890;-88
2023/10/20 03:40:30;;;;;;;28.27;24.10;;;;;;;6.62;100.00;93298.41;7396098;19;20368;-89
2023/10/20 03:42:58;;;;;;;23.70;21.10;;;;;;;6.37;100.00;93274.03;7398984;19;20388;-89
2023/10/20 03:45:25;;;;;;;28.90;25.03;;;;;;;6.26;100.00;93255.66;7397396;19;20753;-89
2023/10/20 03:47:53;;;;;;;31.07;25.00;;;;;;;5.96;100.00;93200.94;7395281;19;20383;-89
2023/10/20 03:50:20;;;;;;;28.00;24.23;;;;;;;6.25;100.00;93241.03;7394310;19;20388;-89
2023/10/20 03:52:48;;;;;;;26.57;23.60;;;;;;;6.00;100.00;93175.47;7398671;19;20384;-89
2023/10/20 03:55:16;;;;;;;26.93;23.37;;;;;;;6.41;100.00;93235.41;7396265;19;20771;-89
2023/10/20 03:57:44;;;;;;;29.93;25.40;;;;;;;6.67;100.00;93281.53;7398930;19;20396;-89
2023/10/20 04:00:27;;;;;;;32.23;24.57;;;;;;;6.12;100.00;93196.06;7395320;19;20372;-89
2023/10/20 04:02:56;;;;;;;29.40;25.00;;;;;;;6.39;100.00;93220.06;7424675;19;20384;-91
2023/10/20 04:05:24;;;;;;;26.83;24.13;;;;;;;5.93;100.00;93138.78;7422076;19;20420;-89
2023/10/20 04:07:51;;;;;;;31.63;25.77;;;;;;;5.92;100.00;93127.53;7426440;19;20377;-89
2023/10/20 04:10:20;;;;;;;30.50;24.20;;;;;;;5.48;100.00;93053.78;7402655;19;20385;-89
2023/10/20 04:12:49;;;;;;;31.90;27.17;;;;;;;5.86;100.00;93110.66;7399375;19;20383;-89
2023/10/20 04:15:16;;;;;;;36.27;29.57;;;;;;;5.82;100.00;93093.44;7398465;19;20810;-89
2023/10/20 04:17:45;;;;;;;30.20;27.03;;;;;;;6.34;100.00;93160.09;7396206;19;20405;-89
2023/10/20 04:20:18;;;;;;;38.37;29.23;;;;;;;6.37;100.00;93156.72;7396735;19;20376;-89
2023/10/20 04:22:49;;;;;;;32.17;27.77;;;;;;;6.57;100.00;93174.69;7396001;19;20329;-89
2023/10/20 04:25:20;;;;;;;36.13;28.83;;;;;;;6.58;100.00;93161.19;7398998;19;20373;-89
2023/10/20 04:28:28;;;;;;;32.60;28.20;;;;;;;6.72;100.00;93182.16;7397369;19;20391;-89
2023/10/20 04:52:58;;;;;;;37.10;27.87;;;;;;;6.48;100.00;93112.09;7398172;19;20766;-89
2023/10/20 04:57:57;;;;;;;37.33;31.63;;;;;;;6.50;100.00;93091.47;7398038;19;20380;-89
2023/10/20 05:00:32;;;;;;;36.77;30.57;;;;;;;6.43;100.00;93073.91;7397243;19;20368;-89
2023/10/20 05:05:34;;;;;;;39.33;30.13;;;;;;;6.46;100.00;93093.38;7396789;19;20513;-89
2023/10/20 05:08:21;;;;;;;29.23;25.67;;;;;;;6.63;100.00;93097.81;7396944;19;20391;-89
2023/10/20 05:10:50;;;;;;;33.83;28.40;;;;;;;6.88;100.00;93125.84;7408107;19;20408;-89
2023/10/20 05:13:19;;;;;;;30.57;27.27;;;;;;;6.70;100.00;93115.44;7402195;19;20380;-89
2023/10/20 05:15:47;;;;;;;34.40;28.17;;;;;;;6.82;100.00;93128.88;7400961;19;21348;-90
2023/10/20 05:18:17;;;;;;;32.33;25.73;;;;;;;6.62;100.00;93090.31;7399445;19;20400;-89
2023/10/20 05:20:46;;;;;;;31.70;27.57;;;;;;;6.41;100.00;93057.03;7398448;19;20388;-89
2023/10/20 05:23:15;;;;;;;34.57;28.47;;;;;;;6.61;100.00;93073.84;7400028;19;20371;-90
2023/10/20 05:25:47;;;;;;;35.83;27.80;;;;;;;6.67;100.00;93074.91;7400038;19;20352;-89
2023/10/20 05:28:16;;;;;;;37.83;29.03;;;;;;;6.99;100.00;93126.56;7398245;19;20957;-89
2023/10/20 05:30:45;;;;;;;35.67;29.77;;;;;;;6.95;100.00;93121.34;7399178;19;20716;-89
2023/10/20 05:33:13;;;;;;;37.70;29.83;;;;;;;6.52;100.00;93048.00;7399230;19;20886;-90
2023/10/20 05:35:40;;;;;;;40.47;30.67;;;;;;;6.36;100.00;93025.94;7399256;19;20380;-89
2023/10/20 05:38:08;;;;;;;37.43;28.50;;;;;;;6.76;100.00;93074.53;7397858;19;20396;-89
2023/10/20 05:40:36;;;;;;;36.77;29.70;;;;;;;7.01;100.00;93098.78;7400485;19;20364;-89
2023/10/20 05:43:05;;;;;;;33.33;28.93;;;;;;;6.60;100.00;93032.97;7399137;19;20689;-90
2023/10/20 05:45:41;;;;;;;32.77;28.23;;;;;;;6.87;100.00;93090.22;7398450;19;20361;-89
2023/10/20 05:48:08;;;;;;;35.63;26.27;;;;;;;6.59;100.00;93052.47;7398464;19;20400;-89
2023/10/20 05:50:38;;;;;;;30.67;24.93;;;;;;;6.81;100.00;93074.88;7398385;19;20384;-89
2023/10/20 05:53:06;;;;;;;29.20;24.50;;;;;;;6.66;100.00;93041.19;7402064;19;20356;-89
2023/10/20 05:55:33;;;;;;;31.30;27.90;;;;;;;7.07;100.00;93092.00;7398270;19;20381;-90
2023/10/20 05:58:02;;;;;;;33.37;28.07;;;;;;;7.09;100.00;93094.25;7410010;19;20349;-89
2023/10/20 06:00:29;;;;;;;32.47;28.07;;;;;;;6.74;100.00;93048.66;7420884;19;20408;-91
2023/10/20 06:02:56;;;;;;;34.17;27.03;;;;;;;6.94;100.00;93061.31;7420659;19;20380;-91
2023/10/20 06:05:23;;;;;;;32.33;27.50;;;;;;;6.57;100.00;93001.50;7408198;19;20394;-91
2023/10/20 06:07:50;;;;;;;31.50;25.73;;;;;;;6.44;100.00;93001.19;7405196;19;20371;-91
2023/10/20 06:10:23;;;;;;;31.70;26.40;;;;;;;6.50;100.00;92997.78;7403259;19;20371;-91
2023/10/20 06:12:54;;;;;;;29.67;24.50;;;;;;;6.85;100.00;93051.25;7398681;19;20942;-91
2023/10/20 06:15:21;;;;;;;33.43;25.77;;;;;;;6.74;100.00;93034.78;7403684;19;20388;-92
2023/10/20 06:17:51;;;;;;;27.10;23.10;;;;;;;6.98;100.00;93078.56;7403126;19;20440;-91
2023/10/20 06:20:18;;;;;;;26.53;23.67;;;;;;;6.91;100.00;93073.31;7400288;19;20388;-91
2023/10/20 06:22:45;;;;;;;28.40;22.93;;;;;;;6.78;100.00;93054.63;7398755;19;20365;-91
2023/10/20 06:25:13;;;;;;;28.30;25.20;;;;;;;6.48;100.00;93015.78;7401310;19;20377;-91
2023/10/20 06:27:44;;;;;;;27.10;23.97;;;;;;;6.45;100.00;93008.66;7398826;19;20337;-91
2023/10/20 06:30:19;;;;;;;29.60;24.40;;;;;;;6.83;100.00;93066.63;7399756;19;20910;-91
2023/10/20 06:32:51;;;;;;;28.77;25.27;;;;;;;6.60;100.00;93037.47;7401525;19;20405;-92
2023/10/20 06:35:19;;;;;;;30.73;26.60;;;;;;;6.22;100.00;92972.41;7403118;19;20405;-92
2023/10/20 06:37:57;;;;;;;31.20;27.03;;;;;;;6.36;100.00;92978.72;7410478;19;20412;-90
2023/10/20 06:40:24;;;;;;;30.27;26.97;;;;;;;6.68;100.00;93017.97;7409522;19;20375;-90
2023/10/20 06:42:52;;;;;;;29.87;26.27;;;;;;;6.05;100.00;92928.66;7399667;19;20384;-92
2023/10/20 06:45:22;;;;;;;30.77;27.43;;;;;;;6.05;100.00;92938.38;7400915;19;20369;-92
2023/10/20 06:47:49;;;;;;;28.60;24.90;;;;;;;5.79;100.00;92898.38;7402121;19;20482;-92
2023/10/20 06:50:16;;;;;;;29.40;25.87;;;;;;;4.96;100.00;92779.28;7399890;19;20397;-92
2023/10/20 06:52:43;;;;;;;37.00;30.60;;;;;;;5.46;100.00;92843.84;7397610;19;20732;-92
2023/10/20 06:55:10;;;;;;;33.23;28.47;;;;;;;6.32;100.00;92949.16;7399246;19;20389;-90
2023/10/20 06:57:57;;;;;;;30.93;26.60;;;;;;;6.14;100.00;92915.88;7400922;19;20460;-90
2023/10/20 07:00:25;;;;;;;35.50;30.20;;;;;;;5.76;100.00;92846.00;7397193;19;20404;-91
2023/10/20 07:02:52;;;;;;;31.83;27.40;;;;;;;5.67;100.00;92827.31;7402410;19;20398;-91
2023/10/20 07:05:23;;;;;;;32.93;26.73;;;;;;;5.72;100.00;92809.31;7399846;19;20392;-90
2023/10/20 07:07:51;;;;;;;33.03;28.13;;;;;;;5.87;100.00;92821.19;7397737;19;20392;-91
2023/10/20 07:10:21;;;;;;;37.67;28.73;;;;;;;6.38;100.00;92895.13;7400153;19;20412;-91
2023/10/20 07:12:49;;;;;;;33.33;26.90;;;;;;;6.27;100.00;92865.59;7398110;19;20381;-91
2023/10/20 07:15:16;;;;;;;36.50;29.40;;;;;;;6.57;100.00;92896.53;7399473;19;20381;-91
2023/10/20 07:17:43;;;;;;;32.57;27.07;;;;;;;6.46;100.00;92878.25;7401726;19;20394;-91
2023/10/20 07:20:10;;;;;;;33.33;28.00;;;;;;;6.35;100.00;92864.44;7404510;19;20403;-91
2023/10/20 07:22:37;;;;;;;31.67;26.80;;;;;;;6.66;100.00;92905.47;7394367;19;20396;-91
2023/10/20 07:25:05;;;;;;;30.40;26.13;;;;;;;6.09;100.00;92827.13;7399248;19;20380;-91
2023/10/20 07:27:32;;;;;;;28.37;25.00;;;;;;;6.74;100.00;92911.41;7397392;19;20376;-91
2023/10/20 07:29:59;;;;;;;35.27;27.10;;;;;;;7.00;100.00;92934.50;7392581;19;20421;-90
2023/10/20 07:32:27;;;;;;;35.23;29.40;;;;;;;6.72;100.00;92908.44;7398187;19;20996;-91
2023/10/20 07:34:54;;;;;;;34.23;27.43;;;;;;;6.16;100.00;92826.34;7398924;19;20396;-91
2023/10/20 07:37:21;;;;;;;33.77;29.63;;;;;;;6.70;100.00;92893.09;7396960;19;20392;-91
2023/10/20 07:39:49;;;;;;;40.00;29.27;;;;;;;6.27;100.00;92808.66;7398431;19;20783;-91
2023/10/20 07:42:19;;;;;;;32.77;27.00;;;;;;;6.19;100.00;92773.13;7416397;19;20417;-91
2023/10/20 07:44:47;;;;;;;33.57;27.07;;;;;;;6.94;100.00;92865.13;7400766;19;20395;-91
2023/10/20 07:47:14;;;;;;;37.07;27.40;;;;;;;5.77;100.00;92705.97;7397801;19;20381;-91
2023/10/20 07:49:41;;;;;;;32.17;28.00;;;;;;;6.15;100.00;92735.69;7397595;19;21217;-91
2023/10/20 07:52:08;;;;;;;35.93;27.10;;;;;;;6.82;100.00;92815.75;7396580;19;20396;-91
2023/10/20 07:54:35;;;;;;;31.87;28.27;;;;;;;6.36;100.00;92746.00;7396692;19;20395;-91
2023/10/20 07:57:03;;;;;;;36.73;29.10;;;;;;;6.69;100.00;92780.63;7398481;19;20397;-91
2023/10/20 07:59:30;;;;;;;34.67;26.07;;;;;;;5.98;100.00;92669.13;7395075;19;20500;-91
2023/10/20 08:01:57;;;;;;;31.57;25.17;;;;;;;6.61;100.00;92745.81;7397127;19;20397;-91
2023/10/20 08:04:26;;;;;;;35.33;27.77;;;;;;;7.26;100.00;92849.09;7399138;19;20384;-91
2023/10/20 08:06:54;;;;;;;36.50;27.00;;;;;;;6.00;100.00;92650.41;7397380;19;20364;-91
2023/10/20 08:09:22;;;;;;;40.17;28.97;;;;;;;6.44;100.00;92702.84;7395011;19;20447;-91
2023/10/20 08:11:49;;;;;;;33.93;27.20;;;;;;;6.60;100.00;92712.09;7398477;19;20412;-92
2023/10/20 08:14:16;;;;;;;34.67;28.90;;;;;;;7.45;100.00;92815.50;7398835;19;20404;-91
2023/10/20 08:16:44;;;;;;;33.73;27.93;;;;;;;6.85;100.00;92712.59;7397345;19;20933;-91
2023/10/20 08:19:11;;;;;;;36.83;29.30;;;;;;;6.43;100.00;92643.66;7399466;19;20408;-91
2023/10/20 08:21:38;;;;;;;36.43;27.47;;;;;;;6.68;100.00;92671.53;7397383;19;20388;-91
2023/10/20 08:24:06;;;;;;;38.90;30.33;;;;;;;6.53;100.00;92645.41;7399041;19;20376;-91
2023/10/20 08:26:34;;;;;;;30.43;26.77;;;;;;;7.42;100.00;92772.38;7396767;19;20392;-91
2023/10/20 08:29:01;;;;;;;32.87;27.10;;;;;;;7.84;100.00;92828.94;7398456;19;20783;-91
2023/10/20 08:31:28;;;;;;;31.33;25.90;;;;;;;7.31;100.00;92750.72;7398043;19;20397;-91
2023/10/20 08:33:55;;;;;;;30.53;25.67;;;;;;;7.45;100.00;92783.97;7395545;19;20388;-91
2023/10/20 08:36:22;;;;;;;29.53;25.00;;;;;;;7.04;100.00;92714.63;7398098;19;20942;-91
2023/10/20 08:38:51;;;;;;;34.13;27.10;;;;;;;7.55;100.00;92772.59;7399665;19;21078;-91
2023/10/20 08:41:22;;;;;;;31.27;25.37;;;;;;;7.72;100.00;92803.16;7397362;19;20804;-91
2023/10/20 08:43:49;;;;;;;30.60;26.30;;;;;;;7.61;100.00;92786.78;7401674;19;20376;-91
2023/10/20 08:46:18;;;;;;;30.97;26.70;;;;;;;7.75;100.00;92809.53;7406702;19;20458;-91
2023/10/20 08:48:47;;;;;;;35.40;26.97;;;;;;;6.99;100.00;92695.94;7399902;19;20400;-91
2023/10/20 08:51:16;;;;;;;31.37;25.80;;;;;;;6.96;100.00;92683.59;7407710;19;20384;-91
2023/10/20 08:53:45;;;;;;;33.27;27.13;;;;;;;7.30;100.00;92749.22;7404328;19;20407;-91
2023/10/20 08:56:13;;;;;;;30.77;27.20;;;;;;;7.02;100.00;92703.03;7406501;19;20400;-91
2023/10/20 08:58:45;;;;;;;30.27;25.87;;;;;;;7.70;100.00;92777.28;7403346;19;20436;-91
2023/10/20 09:01:12;;;;;;;32.90;27.40;;;;;;;7.56;100.00;92768.81;7413806;19;20400;-91
2023/10/20 09:03:44;;;;;;;28.07;24.83;;;;;;;6.89;100.00;92673.91;7431881;19;20384;-91
2023/10/20 09:06:14;;;;;;;31.27;24.77;;;;;;;7.17;100.00;92720.09;7433735;19;20392;-92
2023/10/20 09:08:43;;;;;;;32.23;26.80;;;;;;;7.08;100.00;92720.59;7424599;19;20439;-91
2023/10/20 09:11:11;;;;;;;29.90;25.50;;;;;;;6.84;100.00;92668.34;7402506;19;20433;-91
2023/10/20 09:13:41;;;;;;;33.50;25.47;;;;;;;7.54;100.00;92763.22;7404054;19;20379;-91
2023/10/20 09:16:10;;;;;;;29.30;25.10;;;;;;;7.96;100.00;92807.38;7402873;19;20376;-91
2023/10/20 09:18:44;;;;;;;27.23;24.20;;;;;;;7.76;100.00;92782.09;7399731;19;20768;-91
2023/10/20 09:21:13;;;;;;;28.80;24.30;;;;;;;7.39;100.00;92715.34;7403212;19;20981;-91
2023/10/20 09:23:52;;;;;;;27.80;23.43;;;;;;;6.72;100.00;92615.22;7405403;19;20372;-91
2023/10/20 09:26:20;;;;;;;26.80;23.10;;;;;;;7.80;100.00;92773.03;7400430;19;21300;-91
2023/10/20 09:28:53;;;;;;;31.10;22.93;;;;;;;7.92;100.00;92769.13;7400287;19;20416;-91
2023/10/20 09:31:21;;;;;;;23.50;20.53;;;;;;;8.16;100.00;92799.59;7403902;19;20368;-90
2023/10/20 09:33:49;;;;;;;23.33;20.87;;;;;;;8.17;100.00;92790.56;7401209;19;20408;-91
2023/10/20 09:36:17;;;;;;;24.20;21.60;;;;;;;8.23;100.00;92786.34;7403028;19;20392;-91
2023/10/20 09:38:51;;;;;;;23.67;20.23;;;;;;;7.25;100.00;92657.75;7400089;19;20432;-91
2023/10/20 09:41:27;;;;;;;23.03;20.63;;;;;;;7.88;100.00;92727.09;7403092;19;20742;-91
2023/10/20 09:44:06;;;;;;;22.63;20.23;;;;;;;8.27;100.00;92787.03;7402286;19;20392;-91
2023/10/20 09:46:43;;;;;;;22.40;20.00;;;;;;;7.31;100.00;92650.88;7404444;19;20373;-91
2023/10/20 09:49:26;;;;;;;22.30;19.40;;;;;;;7.86;100.00;92723.34;7400812;19;20817;-91
2023/10/20 09:51:55;;;;;;;20.93;18.77;;;;;;;8.20;100.00;92755.56;7401203;19;20372;-91
2023/10/20 09:54:28;;;;;;;23.10;20.47;;;;;;;8.44;100.00;92795.09;7401393;19;20393;-91
2023/10/20 09:56:56;;;;;;;20.33;18.20;;;;;;;7.27;100.00;92635.19;7401773;19;20407;-91
2023/10/20 09:59:27;;;;;;;19.13;16.97;;;;;;;8.16;100.00;92746.25;7401013;19;20405;-91
2023/10/20 10:01:56;;;;;;;20.43;18.50;;;;;;;8.41;100.00;92766.94;7406608;19;20397;-91
2023/10/20 10:04:39;;;;;;;19.33;17.33;;;;;;;8.75;100.00;92782.56;7402778;19;20383;-91
2023/10/20 10:07:08;;;;;;;20.70;18.57;;;;;;;7.95;100.00;92668.38;7402679;19;20391;-91
2023/10/20 10:09:37;;;;;;;20.50;17.50;;;;;;;8.44;100.00;92714.25;7398819;19;20421;-91
2023/10/20 10:12:10;;;;;;;23.63;20.90;;;;;;;8.69;100.00;92721.75;7402766;19;20436;-91
2023/10/20 10:14:38;;;;;;;28.27;22.10;;;;;;;8.58;100.00;92690.31;7400968;19;20810;-90
2023/10/20 10:17:09;;;;;;;29.20;23.33;;;;;;;8.43;100.00;92664.66;7403411;19;20388;-91
2023/10/20 10:19:51;;;;;;;24.50;20.80;;;;;;;8.98;100.00;92742.31;7407115;19;20440;-91
2023/10/20 10:22:29;;;;;;;21.87;19.60;;;;;;;9.31;100.00;92756.38;7413310;19;20396;-91
2023/10/20 10:25:00;;;;;;;20.47;18.37;;;;;;;9.13;100.00;92714.56;7401254;19;20927;-91
2023/10/20 10:27:28;;;;;;;19.53;17.60;;;;;;;8.55;100.00;92603.53;7400443;19;20769;-89
2023/10/20 10:30:05;;;;;;;21.53;19.33;;;;;;;9.06;100.00;92685.69;7399572;19;20412;-91
2023/10/20 10:32:41;;;;;;;18.80;16.90;;;;;;;8.22;100.00;92549.97;7400250;19;20783;-91
2023/10/20 10:35:09;;;;;;;19.10;17.20;;;;;;;9.05;100.00;92676.31;7402533;19;20388;-91
2023/10/20 10:37:37;;;;;;;18.70;16.37;;;;;;;8.88;100.00;92636.00;7401596;19;20401;-91
2023/10/20 10:40:10;;;;;;;16.40;14.80;;;;;;;9.45;100.00;92727.84;7395493;19;20404;-90
2023/10/20 10:42:46;;;;;;;18.33;16.47;;;;;;;9.02;100.00;92674.50;7397452;19;20385;-91
2023/10/20 10:45:29;;;;;;;17.70;15.80;;;;;;;8.64;100.00;92621.41;7399447;19;20392;-91
2023/10/20 10:48:12;;;;;;;17.70;15.93;;;;;;;8.63;100.00;92593.59;7404281;19;20400;-91
2023/10/20 10:50:41;;;;;;;18.60;15.93;;;;;;;9.04;100.00;92657.13;7402253;19;20385;-91
2023/10/20 10:53:10;;;;;;;15.77;14.17;;;;;;;8.47;100.00;92583.75;7415235;19;20407;-91
2023/10/20 10:55:38;;;;;;;15.80;14.17;;;;;;;8.78;100.00;92629.78;7415864;19;20388;-91
2023/10/20 10:58:07;;;;;;;17.97;16.13;;;;;;;9.24;100.00;92703.81;7406638;19;20513;-91
2023/10/20 11:00:35;;;;;;;17.33;15.70;;;;;;;9.38;100.00;92754.34;7401794;19;20377;-91
2023/10/20 11:03:04;;;;;;;18.47;16.57;;;;;;;9.07;100.00;92697.72;7397416;19;20398;-91
2023/10/20 11:05:33;;;;;;;17.40;15.70;;;;;;;8.22;100.00;92594.69;7397945;19;20380;-91
2023/10/20 11:08:05;;;;;;;18.13;16.23;;;;;;;9.35;100.00;92757.81;7398173;19;20391;-91
2023/10/20 11:10:34;;;;;;;18.13;15.90;;;;;;;8.68;100.00;92685.25;7397156;19;20381;-91
2023/10/20 11:13:10;;;;;;;19.30;17.30;;;;;;;8.98;100.00;92713.34;7398754;19;20414;-91
2023/10/20 11:15:39;;;;;;;20.60;18.40;;;;;;;9.19;100.00;92736.63;7400714;19;20393;-91
2023/10/20 11:18:07;;;;;;;18.33;16.50;;;;;;;9.41;100.00;92793.09;7395907;19;20419;-91
2023/10/20 11:20:41;;;;;;;19.13;17.20;;;;;;;8.75;100.00;92687.78;7400327;19;20394;-91
2023/10/20 11:23:11;;;;;;;20.20;17.37;;;;;;;8.72;100.00;92676.16;7398503;19;20372;-91
2023/10/20 11:25:40;;;;;;;17.93;15.67;;;;;;;9.65;100.00;92806.94;7400731;19;20409;-91
2023/10/20 11:28:07;;;;;;;17.03;15.33;;;;;;;8.43;100.00;92638.34;7399377;19;20401;-91
2023/10/20 11:30:41;;;;;;;17.50;15.70;;;;;;;9.37;100.00;92755.50;7397528;19;20392;-91
2023/10/20 11:33:12;;;;;;;18.40;16.50;;;;;;;8.52;100.00;92641.91;7399317;19;20399;-91
2023/10/20 11:35:43;;;;;;;19.93;17.53;;;;;;;7.40;100.00;92494.25;7398639;19;20397;-91
2023/10/20 11:38:17;;;;;;;17.93;16.07;;;;;;;7.90;100.00;92550.53;7396722;19;20393;-91
2023/10/20 11:40:47;;;;;;;18.53;16.60;;;;;;;8.77;100.00;92673.06;7399055;19;20392;-91
2023/10/20 11:43:15;;;;;;;19.20;17.20;;;;;;;8.57;100.00;92659.88;7400629;19;20384;-91
2023/10/20 11:45:45;;;;;;;18.30;16.47;;;;;;;8.17;100.00;92593.28;7400478;19;20381;-91
2023/10/20 11:48:12;;;;;;;19.13;17.13;;;;;;;8.46;100.00;92637.53;7401805;19;20407;-91
2023/10/20 11:50:40;;;;;;;19.83;17.93;;;;;;;7.78;100.00;92528.19;7399439;19;20384;-91
2023/10/20 11:53:07;;;;;;;21.20;17.90;;;;;;;8.80;100.00;92680.16;7396353;19;20397;-91